sensor_id;sensor_type;location;lat;lon;timestamp;P1;durP1;ratioP1;P2;durP2;ratioP2
26060;SDS011;36331;51.378;0.018;2023-01-29T00:01:16;13.00;;;8.80;;
26060;SDS011;36331;51.378;0.018;2023-01-29T00:03:49;14.57;;;8.15;;
26060;SDS011;36331;51.378;0.018;2023-01-29T00:06:18;14.07;;;8.63;;
26060;SDS011;36331;51.378;0.018;2023-01-29T00:08:49;14.88;;;9.63;;
26060;SDS011;36331;51.378;0.018;2023-01-29T00:11:21;13.63;;;8.60;;
26060;SDS011;36331;51.378;0.018;2023-01-29T00:13:53;15.70;;;8.02;;
26060;SDS011;36331;51.378;0.018;2023-01-29T00:16:23;19.02;;;8.73;;
26060;SDS011;36331;51.378;0.018;2023-01-29T00:18:53;12.38;;;8.10;;
26060;SDS011;36331;51.378;0.018;2023-01-29T00:21:22;15.93;;;9.00;;
26060;SDS011;36331;51.378;0.018;2023-01-29T00:23:52;13.43;;;8.23;;
26060;SDS011;36331;51.378;0.018;2023-01-29T00:26:26;14.35;;;8.82;;
26060;SDS011;36331;51.378;0.018;2023-01-29T00:28:58;12.45;;;8.18;;
26060;SDS011;36331;51.378;0.018;2023-01-29T00:31:28;13.13;;;8.32;;
26060;SDS011;36331;51.378;0.018;2023-01-29T00:33:58;14.50;;;7.60;;
26060;SDS011;36331;51.378;0.018;2023-01-29T00:36:28;14.52;;;8.68;;
26060;SDS011;36331;51.378;0.018;2023-01-29T00:38:57;13.18;;;8.30;;
26060;SDS011;36331;51.378;0.018;2023-01-29T00:41:29;15.55;;;8.25;;
26060;SDS011;36331;51.378;0.018;2023-01-29T00:44:18;13.50;;;8.48;;
26060;SDS011;36331;51.378;0.018;2023-01-29T00:47:05;12.10;;;8.23;;
26060;SDS011;36331;51.378;0.018;2023-01-29T00:49:55;14.07;;;8.68;;
26060;SDS011;36331;51.378;0.018;2023-01-29T00:52:26;14.05;;;8.90;;
26060;SDS011;36331;51.378;0.018;2023-01-29T00:54:57;16.23;;;8.18;;
26060;SDS011;36331;51.378;0.018;2023-01-29T00:57:29;11.43;;;7.53;;
26060;SDS011;36331;51.378;0.018;2023-01-29T01:00:02;15.13;;;8.35;;
26060;SDS011;36331;51.378;0.018;2023-01-29T01:02:32;16.50;;;9.10;;
26060;SDS011;36331;51.378;0.018;2023-01-29T01:05:18;13.40;;;8.52;;
26060;SDS011;36331;51.378;0.018;2023-01-29T01:07:49;14.40;;;8.75;;
26060;SDS011;36331;51.378;0.018;2023-01-29T01:10:20;17.70;;;10.10;;
26060;SDS011;36331;51.378;0.018;2023-01-29T01:12:49;19.00;;;9.68;;
26060;SDS011;36331;51.378;0.018;2023-01-29T01:15:23;14.27;;;9.07;;
26060;SDS011;36331;51.378;0.018;2023-01-29T01:17:54;18.63;;;10.45;;
26060;SDS011;36331;51.378;0.018;2023-01-29T01:20:25;17.30;;;10.20;;
26060;SDS011;36331;51.378;0.018;2023-01-29T01:22:55;17.13;;;10.03;;
26060;SDS011;36331;51.378;0.018;2023-01-29T01:25:26;19.52;;;9.52;;
26060;SDS011;36331;51.378;0.018;2023-01-29T01:27:56;17.27;;;11.10;;
26060;SDS011;36331;51.378;0.018;2023-01-29T01:30:27;17.38;;;9.50;;
26060;SDS011;36331;51.378;0.018;2023-01-29T01:32:56;16.57;;;10.10;;
26060;SDS011;36331;51.378;0.018;2023-01-29T01:35:25;18.40;;;10.70;;
26060;SDS011;36331;51.378;0.018;2023-01-29T01:37:54;17.60;;;10.60;;
26060;SDS011;36331;51.378;0.018;2023-01-29T01:40:24;21.40;;;11.23;;
26060;SDS011;36331;51.378;0.018;2023-01-29T01:42:54;18.00;;;10.50;;
26060;SDS011;36331;51.378;0.018;2023-01-29T01:45:25;18.73;;;10.90;;
26060;SDS011;36331;51.378;0.018;2023-01-29T01:47:58;21.65;;;11.75;;
26060;SDS011;36331;51.378;0.018;2023-01-29T01:50:29;15.45;;;9.63;;
26060;SDS011;36331;51.378;0.018;2023-01-29T01:53:01;15.57;;;9.65;;
26060;SDS011;36331;51.378;0.018;2023-01-29T01:55:32;20.77;;;12.02;;
26060;SDS011;36331;51.378;0.018;2023-01-29T01:58:05;18.85;;;10.98;;
26060;SDS011;36331;51.378;0.018;2023-01-29T02:03:06;19.67;;;12.20;;
26060;SDS011;36331;51.378;0.018;2023-01-29T02:05:56;18.95;;;10.65;;
26060;SDS011;36331;51.378;0.018;2023-01-29T02:08:48;21.08;;;11.95;;
26060;SDS011;36331;51.378;0.018;2023-01-29T02:11:36;20.67;;;11.80;;
26060;SDS011;36331;51.378;0.018;2023-01-29T02:14:06;18.48;;;10.38;;
26060;SDS011;36331;51.378;0.018;2023-01-29T02:16:36;19.55;;;11.70;;
26060;SDS011;36331;51.378;0.018;2023-01-29T02:19:17;19.00;;;10.73;;
26060;SDS011;36331;51.378;0.018;2023-01-29T02:21:59;18.88;;;9.98;;
26060;SDS011;36331;51.378;0.018;2023-01-29T02:24:38;17.75;;;9.70;;
26060;SDS011;36331;51.378;0.018;2023-01-29T02:27:16;16.80;;;10.13;;
26060;SDS011;36331;51.378;0.018;2023-01-29T02:29:53;17.23;;;10.13;;
26060;SDS011;36331;51.378;0.018;2023-01-29T02:32:27;17.38;;;9.95;;
26060;SDS011;36331;51.378;0.018;2023-01-29T02:35:05;18.83;;;10.60;;
26060;SDS011;36331;51.378;0.018;2023-01-29T02:38:10;15.57;;;9.38;;
26060;SDS011;36331;51.378;0.018;2023-01-29T02:40:43;26.60;;;10.40;;
26060;SDS011;36331;51.378;0.018;2023-01-29T02:43:15;18.48;;;10.20;;
26060;SDS011;36331;51.378;0.018;2023-01-29T02:45:49;18.42;;;10.25;;
26060;SDS011;36331;51.378;0.018;2023-01-29T02:48:22;16.98;;;10.20;;
26060;SDS011;36331;51.378;0.018;2023-01-29T02:50:55;16.80;;;9.83;;
26060;SDS011;36331;51.378;0.018;2023-01-29T02:53:28;20.10;;;10.55;;
26060;SDS011;36331;51.378;0.018;2023-01-29T02:56:01;14.80;;;8.07;;
26060;SDS011;36331;51.378;0.018;2023-01-29T02:58:32;17.30;;;11.80;;
26060;SDS011;36331;51.378;0.018;2023-01-29T03:01:06;15.27;;;9.45;;
26060;SDS011;36331;51.378;0.018;2023-01-29T03:03:37;16.27;;;9.13;;
26060;SDS011;36331;51.378;0.018;2023-01-29T03:06:11;16.85;;;9.88;;
26060;SDS011;36331;51.378;0.018;2023-01-29T03:08:49;15.90;;;9.43;;
26060;SDS011;36331;51.378;0.018;2023-01-29T03:11:20;16.52;;;9.13;;
26060;SDS011;36331;51.378;0.018;2023-01-29T03:13:51;16.40;;;9.23;;
26060;SDS011;36331;51.378;0.018;2023-01-29T03:16:24;17.25;;;9.63;;
26060;SDS011;36331;51.378;0.018;2023-01-29T03:18:56;16.33;;;9.65;;
26060;SDS011;36331;51.378;0.018;2023-01-29T03:24:15;17.70;;;8.57;;
26060;SDS011;36331;51.378;0.018;2023-01-29T03:27:06;20.67;;;9.43;;
26060;SDS011;36331;51.378;0.018;2023-01-29T03:29:55;17.33;;;10.55;;
26060;SDS011;36331;51.378;0.018;2023-01-29T03:32:56;15.77;;;10.50;;
26060;SDS011;36331;51.378;0.018;2023-01-29T03:35:30;16.17;;;9.38;;
26060;SDS011;36331;51.378;0.018;2023-01-29T03:38:04;21.70;;;10.30;;
26060;SDS011;36331;51.378;0.018;2023-01-29T03:40:44;17.30;;;10.20;;
26060;SDS011;36331;51.378;0.018;2023-01-29T03:43:18;18.27;;;9.20;;
26060;SDS011;36331;51.378;0.018;2023-01-29T03:45:54;17.30;;;10.95;;
26060;SDS011;36331;51.378;0.018;2023-01-29T03:48:30;16.42;;;9.00;;
26060;SDS011;36331;51.378;0.018;2023-01-29T03:51:03;17.52;;;9.88;;
26060;SDS011;36331;51.378;0.018;2023-01-29T03:53:36;16.48;;;9.98;;
26060;SDS011;36331;51.378;0.018;2023-01-29T03:56:15;17.05;;;10.27;;
26060;SDS011;36331;51.378;0.018;2023-01-29T03:58:47;18.38;;;10.50;;
26060;SDS011;36331;51.378;0.018;2023-01-29T04:01:28;19.10;;;9.48;;
26060;SDS011;36331;51.378;0.018;2023-01-29T04:06:30;19.33;;;9.73;;
26060;SDS011;36331;51.378;0.018;2023-01-29T04:09:06;19.63;;;10.57;;
26060;SDS011;36331;51.378;0.018;2023-01-29T04:11:41;17.23;;;9.98;;
26060;SDS011;36331;51.378;0.018;2023-01-29T04:14:11;19.80;;;11.43;;
26060;SDS011;36331;51.378;0.018;2023-01-29T04:16:43;18.85;;;9.93;;
26060;SDS011;36331;51.378;0.018;2023-01-29T04:19:19;17.10;;;9.80;;
26060;SDS011;36331;51.378;0.018;2023-01-29T04:21:54;20.35;;;10.38;;
26060;SDS011;36331;51.378;0.018;2023-01-29T04:24:26;17.75;;;10.18;;
26060;SDS011;36331;51.378;0.018;2023-01-29T04:26:57;18.80;;;10.45;;
26060;SDS011;36331;51.378;0.018;2023-01-29T04:29:34;19.48;;;10.90;;
26060;SDS011;36331;51.378;0.018;2023-01-29T04:32:10;16.58;;;9.73;;
26060;SDS011;36331;51.378;0.018;2023-01-29T04:34:49;21.83;;;11.10;;
26060;SDS011;36331;51.378;0.018;2023-01-29T04:37:22;19.02;;;10.05;;
26060;SDS011;36331;51.378;0.018;2023-01-29T04:39:58;19.42;;;9.93;;
26060;SDS011;36331;51.378;0.018;2023-01-29T04:42:32;25.05;;;11.80;;
26060;SDS011;36331;51.378;0.018;2023-01-29T04:45:04;17.48;;;9.68;;
26060;SDS011;36331;51.378;0.018;2023-01-29T04:47:39;20.95;;;11.05;;
26060;SDS011;36331;51.378;0.018;2023-01-29T04:50:15;17.80;;;10.00;;
26060;SDS011;36331;51.378;0.018;2023-01-29T04:52:49;18.63;;;11.15;;
26060;SDS011;36331;51.378;0.018;2023-01-29T04:55:23;23.27;;;11.80;;
26060;SDS011;36331;51.378;0.018;2023-01-29T04:57:57;17.35;;;10.18;;
26060;SDS011;36331;51.378;0.018;2023-01-29T05:00:30;17.88;;;10.65;;
26060;SDS011;36331;51.378;0.018;2023-01-29T05:03:01;19.30;;;10.50;;
26060;SDS011;36331;51.378;0.018;2023-01-29T05:05:32;17.03;;;10.57;;
26060;SDS011;36331;51.378;0.018;2023-01-29T05:08:03;18.73;;;10.77;;
26060;SDS011;36331;51.378;0.018;2023-01-29T05:10:33;17.08;;;10.88;;
26060;SDS011;36331;51.378;0.018;2023-01-29T05:13:04;17.60;;;10.32;;
26060;SDS011;36331;51.378;0.018;2023-01-29T05:15:35;20.25;;;11.10;;
26060;SDS011;36331;51.378;0.018;2023-01-29T05:18:05;17.08;;;10.10;;
26060;SDS011;36331;51.378;0.018;2023-01-29T05:20:35;16.83;;;9.80;;
26060;SDS011;36331;51.378;0.018;2023-01-29T05:23:09;17.60;;;10.50;;
26060;SDS011;36331;51.378;0.018;2023-01-29T05:25:38;19.05;;;10.75;;
26060;SDS011;36331;51.378;0.018;2023-01-29T05:28:08;19.40;;;10.68;;
26060;SDS011;36331;51.378;0.018;2023-01-29T05:30:43;18.15;;;10.20;;
26060;SDS011;36331;51.378;0.018;2023-01-29T05:33:13;19.35;;;10.77;;
26060;SDS011;36331;51.378;0.018;2023-01-29T05:35:43;22.00;;;11.10;;
26060;SDS011;36331;51.378;0.018;2023-01-29T05:38:14;19.08;;;10.43;;
26060;SDS011;36331;51.378;0.018;2023-01-29T05:40:43;17.92;;;10.95;;
26060;SDS011;36331;51.378;0.018;2023-01-29T05:43:16;20.23;;;10.40;;
26060;SDS011;36331;51.378;0.018;2023-01-29T05:45:50;18.98;;;11.43;;
26060;SDS011;36331;51.378;0.018;2023-01-29T05:48:20;21.70;;;10.88;;
26060;SDS011;36331;51.378;0.018;2023-01-29T05:50:49;17.58;;;10.13;;
26060;SDS011;36331;51.378;0.018;2023-01-29T05:53:20;19.88;;;12.18;;
26060;SDS011;36331;51.378;0.018;2023-01-29T05:55:49;15.15;;;10.00;;
26060;SDS011;36331;51.378;0.018;2023-01-29T05:58:19;16.25;;;9.65;;
26060;SDS011;36331;51.378;0.018;2023-01-29T06:00:48;16.45;;;9.25;;
26060;SDS011;36331;51.378;0.018;2023-01-29T06:03:17;14.75;;;8.40;;
26060;SDS011;36331;51.378;0.018;2023-01-29T06:05:46;18.75;;;11.43;;
26060;SDS011;36331;51.378;0.018;2023-01-29T06:08:16;20.88;;;10.23;;
26060;SDS011;36331;51.378;0.018;2023-01-29T06:10:47;16.20;;;10.40;;
26060;SDS011;36331;51.378;0.018;2023-01-29T06:13:16;17.40;;;9.50;;
26060;SDS011;36331;51.378;0.018;2023-01-29T06:15:45;20.92;;;10.60;;
26060;SDS011;36331;51.378;0.018;2023-01-29T06:18:17;18.67;;;10.43;;
26060;SDS011;36331;51.378;0.018;2023-01-29T06:20:46;16.48;;;10.25;;
26060;SDS011;36331;51.378;0.018;2023-01-29T06:23:16;16.23;;;8.48;;
26060;SDS011;36331;51.378;0.018;2023-01-29T06:25:47;15.50;;;8.95;;
26060;SDS011;36331;51.378;0.018;2023-01-29T06:28:16;18.38;;;9.95;;
26060;SDS011;36331;51.378;0.018;2023-01-29T06:30:46;17.10;;;10.30;;
26060;SDS011;36331;51.378;0.018;2023-01-29T06:33:15;16.38;;;9.05;;
26060;SDS011;36331;51.378;0.018;2023-01-29T06:35:44;15.88;;;9.02;;
26060;SDS011;36331;51.378;0.018;2023-01-29T06:38:13;18.13;;;9.93;;
26060;SDS011;36331;51.378;0.018;2023-01-29T06:40:42;15.50;;;9.10;;
26060;SDS011;36331;51.378;0.018;2023-01-29T06:43:14;15.50;;;8.93;;
26060;SDS011;36331;51.378;0.018;2023-01-29T06:45:46;13.15;;;8.07;;
26060;SDS011;36331;51.378;0.018;2023-01-29T06:48:16;14.43;;;8.70;;
26060;SDS011;36331;51.378;0.018;2023-01-29T06:50:45;16.35;;;8.77;;
26060;SDS011;36331;51.378;0.018;2023-01-29T06:53:15;14.27;;;7.38;;
26060;SDS011;36331;51.378;0.018;2023-01-29T06:55:49;13.75;;;8.77;;
26060;SDS011;36331;51.378;0.018;2023-01-29T06:58:21;11.48;;;7.47;;
26060;SDS011;36331;51.378;0.018;2023-01-29T07:00:51;10.48;;;6.53;;
26060;SDS011;36331;51.378;0.018;2023-01-29T07:03:21;10.98;;;7.45;;
26060;SDS011;36331;51.378;0.018;2023-01-29T07:05:50;11.02;;;6.05;;
26060;SDS011;36331;51.378;0.018;2023-01-29T07:08:20;10.07;;;6.82;;
26060;SDS011;36331;51.378;0.018;2023-01-29T07:10:49;10.15;;;6.80;;
26060;SDS011;36331;51.378;0.018;2023-01-29T07:13:21;12.75;;;7.68;;
26060;SDS011;36331;51.378;0.018;2023-01-29T07:15:50;9.38;;;6.35;;
26060;SDS011;36331;51.378;0.018;2023-01-29T07:18:20;14.27;;;6.35;;
26060;SDS011;36331;51.378;0.018;2023-01-29T07:20:49;12.23;;;7.38;;
26060;SDS011;36331;51.378;0.018;2023-01-29T07:23:19;10.35;;;6.18;;
26060;SDS011;36331;51.378;0.018;2023-01-29T07:25:48;10.50;;;6.43;;
26060;SDS011;36331;51.378;0.018;2023-01-29T07:28:18;8.75;;;5.53;;
26060;SDS011;36331;51.378;0.018;2023-01-29T07:30:53;11.32;;;6.25;;
26060;SDS011;36331;51.378;0.018;2023-01-29T07:33:23;11.15;;;6.40;;
26060;SDS011;36331;51.378;0.018;2023-01-29T07:35:53;8.05;;;5.82;;
26060;SDS011;36331;51.378;0.018;2023-01-29T07:38:22;9.38;;;5.70;;
26060;SDS011;36331;51.378;0.018;2023-01-29T07:40:51;9.27;;;5.60;;
26060;SDS011;36331;51.378;0.018;2023-01-29T07:43:21;11.70;;;7.00;;
26060;SDS011;36331;51.378;0.018;2023-01-29T07:45:53;12.60;;;6.97;;
26060;SDS011;36331;51.378;0.018;2023-01-29T07:48:22;12.77;;;7.00;;
26060;SDS011;36331;51.378;0.018;2023-01-29T07:50:53;10.70;;;6.57;;
26060;SDS011;36331;51.378;0.018;2023-01-29T07:53:22;12.27;;;7.10;;
26060;SDS011;36331;51.378;0.018;2023-01-29T07:55:51;14.82;;;6.95;;
26060;SDS011;36331;51.378;0.018;2023-01-29T07:58:21;11.13;;;7.07;;
26060;SDS011;36331;51.378;0.018;2023-01-29T08:00:50;9.00;;;5.47;;
26060;SDS011;36331;51.378;0.018;2023-01-29T08:03:21;8.75;;;5.35;;
26060;SDS011;36331;51.378;0.018;2023-01-29T08:05:50;9.82;;;5.45;;
26060;SDS011;36331;51.378;0.018;2023-01-29T08:08:19;9.77;;;5.80;;
26060;SDS011;36331;51.378;0.018;2023-01-29T08:10:48;10.27;;;5.95;;
26060;SDS011;36331;51.378;0.018;2023-01-29T08:13:17;10.48;;;6.28;;
26060;SDS011;36331;51.378;0.018;2023-01-29T08:15:46;12.73;;;6.70;;
26060;SDS011;36331;51.378;0.018;2023-01-29T08:18:16;9.38;;;5.07;;
26060;SDS011;36331;51.378;0.018;2023-01-29T08:20:47;9.20;;;6.00;;
26060;SDS011;36331;51.378;0.018;2023-01-29T08:23:18;7.00;;;4.07;;
26060;SDS011;36331;51.378;0.018;2023-01-29T08:25:48;10.32;;;5.07;;
26060;SDS011;36331;51.378;0.018;2023-01-29T08:28:18;9.20;;;5.35;;
26060;SDS011;36331;51.378;0.018;2023-01-29T08:30:48;9.30;;;5.07;;
26060;SDS011;36331;51.378;0.018;2023-01-29T08:33:21;7.43;;;4.30;;
26060;SDS011;36331;51.378;0.018;2023-01-29T08:36:06;7.95;;;4.95;;
26060;SDS011;36331;51.378;0.018;2023-01-29T08:38:36;8.85;;;4.47;;
26060;SDS011;36331;51.378;0.018;2023-01-29T08:41:06;7.28;;;4.40;;
26060;SDS011;36331;51.378;0.018;2023-01-29T08:43:35;7.85;;;6.05;;
26060;SDS011;36331;51.378;0.018;2023-01-29T08:48:36;6.57;;;4.15;;
26060;SDS011;36331;51.378;0.018;2023-01-29T08:51:07;10.70;;;5.30;;
26060;SDS011;36331;51.378;0.018;2023-01-29T08:53:36;8.77;;;4.95;;
26060;SDS011;36331;51.378;0.018;2023-01-29T08:56:06;7.55;;;3.97;;
26060;SDS011;36331;51.378;0.018;2023-01-29T08:58:35;7.97;;;5.18;;
26060;SDS011;36331;51.378;0.018;2023-01-29T09:01:04;8.23;;;4.78;;
26060;SDS011;36331;51.378;0.018;2023-01-29T09:03:34;6.65;;;4.85;;
26060;SDS011;36331;51.378;0.018;2023-01-29T09:06:09;12.32;;;5.05;;
26060;SDS011;36331;51.378;0.018;2023-01-29T09:08:38;9.85;;;5.45;;
26060;SDS011;36331;51.378;0.018;2023-01-29T09:11:08;8.80;;;5.22;;
26060;SDS011;36331;51.378;0.018;2023-01-29T09:13:38;6.50;;;4.70;;
26060;SDS011;36331;51.378;0.018;2023-01-29T09:16:07;8.07;;;4.53;;
26060;SDS011;36331;51.378;0.018;2023-01-29T09:18:37;8.52;;;5.35;;
26060;SDS011;36331;51.378;0.018;2023-01-29T09:21:06;12.43;;;5.57;;
26060;SDS011;36331;51.378;0.018;2023-01-29T09:23:37;7.93;;;4.90;;
26060;SDS011;36331;51.378;0.018;2023-01-29T09:26:08;9.77;;;5.35;;
26060;SDS011;36331;51.378;0.018;2023-01-29T09:28:38;9.73;;;5.65;;
26060;SDS011;36331;51.378;0.018;2023-01-29T09:31:07;8.55;;;5.05;;
26060;SDS011;36331;51.378;0.018;2023-01-29T09:33:39;8.82;;;5.47;;
26060;SDS011;36331;51.378;0.018;2023-01-29T09:36:09;8.18;;;5.00;;
26060;SDS011;36331;51.378;0.018;2023-01-29T09:38:40;7.35;;;5.20;;
26060;SDS011;36331;51.378;0.018;2023-01-29T09:41:14;10.52;;;5.38;;
26060;SDS011;36331;51.378;0.018;2023-01-29T09:43:48;9.43;;;5.55;;
26060;SDS011;36331;51.378;0.018;2023-01-29T09:46:22;9.18;;;5.03;;
26060;SDS011;36331;51.378;0.018;2023-01-29T09:48:56;9.27;;;5.43;;
26060;SDS011;36331;51.378;0.018;2023-01-29T09:51:29;11.65;;;5.10;;
26060;SDS011;36331;51.378;0.018;2023-01-29T09:54:04;10.00;;;5.75;;
26060;SDS011;36331;51.378;0.018;2023-01-29T09:56:36;8.32;;;4.95;;
26060;SDS011;36331;51.378;0.018;2023-01-29T09:59:06;8.35;;;4.30;;
26060;SDS011;36331;51.378;0.018;2023-01-29T10:01:38;8.20;;;5.55;;
26060;SDS011;36331;51.378;0.018;2023-01-29T10:04:18;11.32;;;5.35;;
26060;SDS011;36331;51.378;0.018;2023-01-29T10:06:56;9.50;;;5.43;;
26060;SDS011;36331;51.378;0.018;2023-01-29T10:12:42;9.63;;;6.07;;
26060;SDS011;36331;51.378;0.018;2023-01-29T10:15:18;8.20;;;5.13;;
26060;SDS011;36331;51.378;0.018;2023-01-29T10:17:55;7.45;;;4.72;;
26060;SDS011;36331;51.378;0.018;2023-01-29T10:20:46;7.75;;;4.70;;
26060;SDS011;36331;51.378;0.018;2023-01-29T10:23:22;7.65;;;4.80;;
26060;SDS011;36331;51.378;0.018;2023-01-29T10:25:54;11.38;;;5.53;;
26060;SDS011;36331;51.378;0.018;2023-01-29T10:28:27;8.18;;;4.82;;
26060;SDS011;36331;51.378;0.018;2023-01-29T10:31:00;8.18;;;5.10;;
26060;SDS011;36331;51.378;0.018;2023-01-29T10:33:32;9.43;;;5.28;;
26060;SDS011;36331;51.378;0.018;2023-01-29T10:36:31;9.85;;;4.63;;
26060;SDS011;36331;51.378;0.018;2023-01-29T10:39:03;9.65;;;4.15;;
26060;SDS011;36331;51.378;0.018;2023-01-29T10:41:47;7.82;;;5.60;;
26060;SDS011;36331;51.378;0.018;2023-01-29T10:44:24;8.00;;;4.30;;
26060;SDS011;36331;51.378;0.018;2023-01-29T10:46:59;10.27;;;5.05;;
26060;SDS011;36331;51.378;0.018;2023-01-29T10:49:37;10.68;;;5.40;;
26060;SDS011;36331;51.378;0.018;2023-01-29T10:52:14;11.93;;;5.88;;
26060;SDS011;36331;51.378;0.018;2023-01-29T10:54:54;9.55;;;4.82;;
26060;SDS011;36331;51.378;0.018;2023-01-29T10:57:27;10.80;;;5.97;;
26060;SDS011;36331;51.378;0.018;2023-01-29T11:00:06;10.85;;;5.53;;
26060;SDS011;36331;51.378;0.018;2023-01-29T11:02:43;10.23;;;6.10;;
26060;SDS011;36331;51.378;0.018;2023-01-29T11:05:18;8.02;;;5.38;;
26060;SDS011;36331;51.378;0.018;2023-01-29T11:07:51;11.93;;;6.05;;
26060;SDS011;36331;51.378;0.018;2023-01-29T11:10:24;12.52;;;6.40;;
26060;SDS011;36331;51.378;0.018;2023-01-29T11:15:27;15.52;;;5.55;;
26060;SDS011;36331;51.378;0.018;2023-01-29T11:18:03;9.98;;;4.93;;
26060;SDS011;36331;51.378;0.018;2023-01-29T11:20:36;7.00;;;4.90;;
26060;SDS011;36331;51.378;0.018;2023-01-29T11:23:05;8.00;;;5.05;;
26060;SDS011;36331;51.378;0.018;2023-01-29T11:25:34;7.32;;;4.70;;
26060;SDS011;36331;51.378;0.018;2023-01-29T11:28:04;8.77;;;4.72;;
26060;SDS011;36331;51.378;0.018;2023-01-29T11:30:51;6.80;;;4.65;;
26060;SDS011;36331;51.378;0.018;2023-01-29T11:34:11;7.47;;;4.78;;
26060;SDS011;36331;51.378;0.018;2023-01-29T11:36:41;9.90;;;5.35;;
26060;SDS011;36331;51.378;0.018;2023-01-29T11:39:12;6.55;;;4.80;;
26060;SDS011;36331;51.378;0.018;2023-01-29T11:41:47;7.18;;;4.50;;
26060;SDS011;36331;51.378;0.018;2023-01-29T11:44:18;9.60;;;5.07;;
26060;SDS011;36331;51.378;0.018;2023-01-29T11:46:50;7.78;;;4.90;;
26060;SDS011;36331;51.378;0.018;2023-01-29T11:49:21;8.27;;;4.55;;
26060;SDS011;36331;51.378;0.018;2023-01-29T11:51:55;9.20;;;5.05;;
26060;SDS011;36331;51.378;0.018;2023-01-29T11:54:28;8.57;;;4.50;;
26060;SDS011;36331;51.378;0.018;2023-01-29T11:57:00;7.28;;;4.68;;
26060;SDS011;36331;51.378;0.018;2023-01-29T11:59:40;7.75;;;4.55;;
26060;SDS011;36331;51.378;0.018;2023-01-29T12:02:19;8.23;;;4.47;;
26060;SDS011;36331;51.378;0.018;2023-01-29T12:04:59;7.80;;;4.88;;
26060;SDS011;36331;51.378;0.018;2023-01-29T12:07:30;7.78;;;5.07;;
26060;SDS011;36331;51.378;0.018;2023-01-29T12:10:00;7.95;;;5.15;;
26060;SDS011;36331;51.378;0.018;2023-01-29T12:12:30;8.05;;;4.95;;
26060;SDS011;36331;51.378;0.018;2023-01-29T12:15:04;10.80;;;5.57;;
26060;SDS011;36331;51.378;0.018;2023-01-29T12:17:38;9.63;;;5.35;;
26060;SDS011;36331;51.378;0.018;2023-01-29T12:20:09;9.73;;;5.70;;
26060;SDS011;36331;51.378;0.018;2023-01-29T12:22:44;11.05;;;6.93;;
26060;SDS011;36331;51.378;0.018;2023-01-29T12:25:18;7.90;;;5.32;;
26060;SDS011;36331;51.378;0.018;2023-01-29T12:27:52;9.07;;;4.35;;
26060;SDS011;36331;51.378;0.018;2023-01-29T12:30:27;7.80;;;4.65;;
26060;SDS011;36331;51.378;0.018;2023-01-29T12:33:00;8.27;;;4.60;;
26060;SDS011;36331;51.378;0.018;2023-01-29T12:35:40;9.65;;;5.70;;
26060;SDS011;36331;51.378;0.018;2023-01-29T12:38:16;9.38;;;4.30;;
26060;SDS011;36331;51.378;0.018;2023-01-29T12:40:48;7.10;;;4.47;;
26060;SDS011;36331;51.378;0.018;2023-01-29T12:43:22;7.03;;;4.38;;
26060;SDS011;36331;51.378;0.018;2023-01-29T12:45:55;7.07;;;3.78;;
26060;SDS011;36331;51.378;0.018;2023-01-29T12:48:29;8.23;;;4.83;;
26060;SDS011;36331;51.378;0.018;2023-01-29T12:51:05;6.78;;;3.90;;
26060;SDS011;36331;51.378;0.018;2023-01-29T12:53:40;5.28;;;2.92;;
26060;SDS011;36331;51.378;0.018;2023-01-29T12:56:16;5.60;;;3.30;;
26060;SDS011;36331;51.378;0.018;2023-01-29T12:58:49;4.57;;;2.75;;
26060;SDS011;36331;51.378;0.018;2023-01-29T13:01:22;3.33;;;2.30;;
26060;SDS011;36331;51.378;0.018;2023-01-29T13:04:00;4.78;;;2.60;;
26060;SDS011;36331;51.378;0.018;2023-01-29T13:06:34;3.53;;;2.55;;
26060;SDS011;36331;51.378;0.018;2023-01-29T13:09:10;2.35;;;2.00;;
26060;SDS011;36331;51.378;0.018;2023-01-29T13:11:45;4.65;;;2.33;;
26060;SDS011;36331;51.378;0.018;2023-01-29T13:14:20;3.30;;;2.03;;
26060;SDS011;36331;51.378;0.018;2023-01-29T13:17:06;2.85;;;2.13;;
26060;SDS011;36331;51.378;0.018;2023-01-29T13:19:41;4.22;;;2.47;;
26060;SDS011;36331;51.378;0.018;2023-01-29T13:25:00;4.65;;;2.42;;
26060;SDS011;36331;51.378;0.018;2023-01-29T13:27:33;3.50;;;2.42;;
26060;SDS011;36331;51.378;0.018;2023-01-29T13:30:05;4.27;;;2.60;;
26060;SDS011;36331;51.378;0.018;2023-01-29T13:32:37;3.85;;;2.53;;
26060;SDS011;36331;51.378;0.018;2023-01-29T13:35:13;4.72;;;3.00;;
26060;SDS011;36331;51.378;0.018;2023-01-29T13:37:46;4.60;;;2.80;;
26060;SDS011;36331;51.378;0.018;2023-01-29T13:40:27;5.15;;;2.70;;
26060;SDS011;36331;51.378;0.018;2023-01-29T13:43:02;4.07;;;2.63;;
26060;SDS011;36331;51.378;0.018;2023-01-29T13:45:34;4.72;;;3.10;;
26060;SDS011;36331;51.378;0.018;2023-01-29T13:48:07;3.60;;;2.72;;
26060;SDS011;36331;51.378;0.018;2023-01-29T13:53:26;5.10;;;2.65;;
26060;SDS011;36331;51.378;0.018;2023-01-29T13:56:08;4.60;;;3.00;;
26060;SDS011;36331;51.378;0.018;2023-01-29T13:58:56;3.15;;;2.75;;
26060;SDS011;36331;51.378;0.018;2023-01-29T14:04:30;3.40;;;2.67;;
26060;SDS011;36331;51.378;0.018;2023-01-29T14:07:00;5.05;;;2.80;;
26060;SDS011;36331;51.378;0.018;2023-01-29T14:15:22;2.83;;;1.90;;
26060;SDS011;36331;51.378;0.018;2023-01-29T14:17:56;2.20;;;1.70;;
26060;SDS011;36331;51.378;0.018;2023-01-29T14:20:35;2.30;;;1.60;;
26060;SDS011;36331;51.378;0.018;2023-01-29T14:23:26;2.17;;;1.55;;
26060;SDS011;36331;51.378;0.018;2023-01-29T14:26:01;1.98;;;1.20;;
26060;SDS011;36331;51.378;0.018;2023-01-29T14:28:51;2.90;;;1.35;;
26060;SDS011;36331;51.378;0.018;2023-01-29T14:31:28;2.00;;;1.40;;
26060;SDS011;36331;51.378;0.018;2023-01-29T14:34:00;1.70;;;1.00;;
26060;SDS011;36331;51.378;0.018;2023-01-29T14:36:51;1.10;;;1.00;;
26060;SDS011;36331;51.378;0.018;2023-01-29T14:39:46;2.92;;;1.27;;
26060;SDS011;36331;51.378;0.018;2023-01-29T14:42:28;2.78;;;1.48;;
26060;SDS011;36331;51.378;0.018;2023-01-29T14:45:08;2.35;;;1.60;;
26060;SDS011;36331;51.378;0.018;2023-01-29T14:47:53;1.42;;;1.00;;
26060;SDS011;36331;51.378;0.018;2023-01-29T14:53:24;1.80;;;1.17;;
26060;SDS011;36331;51.378;0.018;2023-01-29T14:55:57;1.75;;;1.15;;
26060;SDS011;36331;51.378;0.018;2023-01-29T14:58:35;1.73;;;1.13;;
26060;SDS011;36331;51.378;0.018;2023-01-29T15:01:15;2.75;;;1.30;;
26060;SDS011;36331;51.378;0.018;2023-01-29T15:03:51;2.70;;;1.75;;
26060;SDS011;36331;51.378;0.018;2023-01-29T15:06:23;1.67;;;1.38;;
26060;SDS011;36331;51.378;0.018;2023-01-29T15:09:02;2.28;;;1.40;;
26060;SDS011;36331;51.378;0.018;2023-01-29T15:11:34;1.90;;;1.33;;
26060;SDS011;36331;51.378;0.018;2023-01-29T15:14:15;2.72;;;1.83;;
26060;SDS011;36331;51.378;0.018;2023-01-29T15:17:01;2.60;;;1.50;;
26060;SDS011;36331;51.378;0.018;2023-01-29T15:19:36;3.67;;;1.73;;
26060;SDS011;36331;51.378;0.018;2023-01-29T15:22:11;2.97;;;2.05;;
26060;SDS011;36331;51.378;0.018;2023-01-29T15:24:41;2.17;;;1.95;;
26060;SDS011;36331;51.378;0.018;2023-01-29T15:27:14;1.83;;;1.30;;
26060;SDS011;36331;51.378;0.018;2023-01-29T15:29:46;1.55;;;1.25;;
26060;SDS011;36331;51.378;0.018;2023-01-29T15:32:32;2.00;;;1.40;;
26060;SDS011;36331;51.378;0.018;2023-01-29T15:35:22;1.63;;;1.25;;
26060;SDS011;36331;51.378;0.018;2023-01-29T15:38:02;3.30;;;1.50;;
26060;SDS011;36331;51.378;0.018;2023-01-29T15:40:39;2.55;;;1.10;;
26060;SDS011;36331;51.378;0.018;2023-01-29T15:43:18;1.50;;;1.23;;
26060;SDS011;36331;51.378;0.018;2023-01-29T15:46:06;1.52;;;1.20;;
26060;SDS011;36331;51.378;0.018;2023-01-29T15:48:59;2.00;;;1.27;;
26060;SDS011;36331;51.378;0.018;2023-01-29T15:57:32;1.77;;;1.50;;